No se requiere un especial cuidado respecto a la situación meteorológica.   -   No hay avisos

Informes METAR

 

LEZL - Sevilla, Spain
Distancia de la estación: ENE 8km
Actualización: 05/07/2015 00:00
Despejado
Despejado
 Viento de OSO
Viento: OSO 9 km/h
Temperatura: 30°C
Índice de calor: 29°C
Rocío: 15°C
Humedad: 40%
Barómetro: 1016 hPa
Resumen: Despejado
Visibilidad: mayor de 10 km
2015/07/04 22:00 LEZL 042200Z 24005KT 210V270 CAVOK 30/15 Q1016 NOSIG
LEMO - Morón, Spain
Distancia de la estación: SE 43km
Actualización: 05/07/2015 00:00
Despejado
Despejado
 Viento de OSO
Viento: OSO 7 km/h
Temperatura: 28°C
Índice de calor: 29°C
Rocío: 18°C
Humedad: 55%
Barómetro: 1017 hPa
Resumen: Despejado
Visibilidad: mayor de 10 km
2015/07/04 22:00 LEMO 042200Z 24004KT CAVOK 28/18 Q1017 NOSIG
LEJR - Jeréz, Spain
Distancia de la estación: S 71km
Actualización: 04/07/2015 23:00
NOT Current
Despejado
Despejado
 Viento de SO
Viento: SO 6 km/h
Temperatura: 28°C
Índice de calor: 28°C
Rocío: 17°C
Humedad: 51%
Barómetro: 1016 hPa
Resumen: Despejado
Visibilidad: mayor de 10 km
2015/07/04 21:00 LEJR 042100Z 22003KT CAVOK 28/17 Q1016
 
LERT - Rota, Spain
Distancia de la estación: SSO 89km
Actualización: 05/07/2015 00:00
Despejado
Despejado
 Viento de variable
Viento: variable 2 km/h
Temperatura: 24°C
Rocío: 19°C
Humedad: 74%
Barómetro: 1017 hPa
Resumen: Despejado
Visibilidad: mayor de 10 km
2015/07/04 22:00 LERT 042200Z VRB01KT CAVOK 24/19 Q1017 NOSIG
LEMG - Málaga, Spain
Distancia de la estación: ESE 157km
Actualización: 05/07/2015 00:00
Despejado
Despejado
 Viento de ESE
Viento: ESE 4 km/h
Temperatura: 25°C
Rocío: 19°C
Humedad: 69%
Barómetro: 1018 hPa
Resumen: Despejado
Visibilidad: mayor de 10 km
2015/07/04 22:00 LEMG 042200Z 11002KT CAVOK 25/19 Q1018 NOSIG
LEBA - Córdoba, Spain
Distancia de la estación: ENE 115km
Actualización: 04/07/2015 21:00
NOT Current
Despejado
Despejado
 Viento de OSO
Viento: OSO 13 km/h
Temperatura: 34°C
Rocío: 14°C
Humedad: 30%
Barómetro: 1014 hPa
Resumen: Despejado
Visibilidad: mayor de 10 km
2015/07/04 19:00 LEBA 041900Z 25007KT 220V280 CAVOK 34/14 Q1014
 
LEGR - Granada, Spain
Distancia de la estación: E 198km
Actualización: 04/07/2015 23:30
Parcialmente nuboso
Parcialmente nuboso
 Viento de SO
Viento: SO 9 km/h
Temperatura: 32°C
Rocío: 12°C
Humedad: 29%
Barómetro: 1019 hPa
Nubes: Parcialmente nuboso
Visibilidad: 10 km
Detalles de las nubes: Parcialmente nuboso 2134 m
2015/07/04 21:30 LEGR 042130Z 22005KT 130V250 9999 SCT070 32/12 Q1019
LEAM - Almería, Spain
Distancia de la estación: E 326km
Actualización: 04/07/2015 22:30
NOT Current
Despejado
Despejado
 Viento de variable
Viento: variable 2 km/h
Temperatura: 27°C
Índice de calor: 29°C
Rocío: 22°C
Humedad: 74%
Barómetro: 1017 hPa
Resumen: Despejado
Visibilidad: mayor de 10 km
2015/07/04 20:30 LEAM 042030Z VRB01KT CAVOK 27/22 Q1017
LEMD - Madrid/Barajas, Spain
Distancia de la estación: NNE 402km
Actualización: 05/07/2015 00:00
Despejado
Despejado
 Viento de N
Viento: N 7 km/h
Temperatura: 30°C
Rocío: 10°C
Humedad: 29%
Barómetro: 1018 hPa
Resumen: Despejado
Visibilidad: mayor de 10 km
2015/07/04 22:00 LEMD 042200Z 01004KT CAVOK 30/10 Q1018 NOSIG
 
LEVD - Valladolid, Spain
Distancia de la estación: N 492km
Actualización: 04/07/2015 21:30
NOT Current
Despejado
Despejado
 Viento de O
Viento: O 9 km/h
Temperatura: 28°C
Rocío: -3°C
Humedad: 13%
Barómetro: 1020 hPa
Resumen: Despejado
Visibilidad: mayor de 10 km
2015/07/04 19:30 LEVD 041930Z 28005KT CAVOK 28/M03 Q1020
LEBL - Barcelona, Spain
Distancia de la estación: NE 816km
Actualización: 05/07/2015 00:00
Poco nuboso
Poco nuboso
 Viento de SSO
Viento: SSO 4 km/h
Temperatura: 26°C
Rocío: 22°C
Humedad: 79%
Barómetro: 1020 hPa
Nubes: Poco nuboso
Visibilidad: 10 km
Detalles de las nubes: Poco nuboso 1524 m
2015/07/04 22:00 LEBL 042200Z 20002KT 9999 FEW050 26/22 Q1020 NOSIG
LEVC - Valencia, Spain
Distancia de la estación: ENE 535km
Actualización: 05/07/2015 00:00
Despejado
Despejado
 Viento de variable
Viento: variable 2 km/h
Temperatura: 27°C
Índice de calor: 29°C
Rocío: 20°C
Humedad: 66%
Barómetro: 1020 hPa
Resumen: Despejado
Visibilidad: mayor de 10 km
2015/07/04 22:00 LEVC 042200Z VRB01KT CAVOK 27/20 Q1020 NOSIG